createdAt,value
2022-08-18T00:02:31.055Z,4.72
2022-08-18T00:05:27.833Z,4.38
2022-08-18T00:08:18.800Z,4.20
2022-08-18T00:10:59.985Z,3.85
2022-08-18T00:13:54.776Z,3.78
2022-08-18T00:16:36.496Z,4.07
2022-08-18T00:19:46.615Z,3.83
2022-08-18T00:22:35.964Z,4.13
2022-08-18T00:25:20.755Z,3.50
2022-08-18T00:28:08.753Z,4.10
2022-08-18T00:30:49.959Z,3.55
2022-08-18T00:33:41.742Z,3.25
2022-08-18T00:36:24.927Z,3.15
2022-08-18T00:39:12.709Z,3.97
2022-08-18T00:42:00.732Z,5.90
2022-08-18T00:44:49.411Z,3.45
2022-08-18T00:47:41.235Z,3.45
2022-08-18T00:50:36.926Z,3.60
2022-08-18T00:53:22.722Z,3.75
2022-08-18T00:56:16.106Z,4.05
2022-08-18T00:59:03.696Z,3.47
2022-08-18T01:01:54.061Z,4.10
2022-08-18T01:04:42.160Z,3.70
2022-08-18T01:07:36.667Z,3.67
2022-08-18T01:10:27.751Z,2.60
2022-08-18T01:13:16.685Z,3.22
2022-08-18T01:16:26.114Z,3.00
2022-08-18T01:19:24.667Z,2.30
2022-08-18T01:22:19.855Z,4.38
2022-08-18T01:25:23.594Z,3.10
2022-08-18T01:28:18.044Z,3.85
2022-08-18T01:31:05.044Z,3.03
2022-08-18T01:33:52.841Z,3.22
2022-08-18T01:36:34.641Z,2.75
2022-08-18T01:41:23.172Z,3.58
2022-08-18T01:42:32.637Z,2.88
2022-08-18T01:45:22.899Z,3.22
2022-08-18T01:48:05.733Z,3.22
2022-08-18T01:50:57.147Z,3.95
2022-08-18T01:53:38.602Z,3.40
2022-08-18T01:56:26.673Z,3.00
2022-08-18T01:59:21.593Z,3.08
2022-08-18T02:02:09.797Z,3.45
2022-08-18T02:05:00.813Z,3.20
2022-08-18T02:07:48.696Z,3.78
2022-08-18T02:10:34.805Z,2.78
2022-08-18T02:13:22.595Z,3.80
2022-08-18T02:16:12.940Z,3.55
2022-08-18T02:18:55.047Z,3.90
2022-08-18T02:21:36.405Z,3.28
2022-08-18T02:24:24.748Z,2.95
2022-08-18T02:27:14.087Z,2.50
2022-08-18T02:29:55.568Z,3.63
2022-08-18T02:32:38.741Z,3.80
2022-08-18T02:35:26.576Z,3.25
2022-08-18T02:38:17.405Z,3.38
2022-08-18T02:41:03.560Z,3.58
2022-08-18T02:43:51.802Z,2.72
2022-08-18T02:46:34.529Z,2.80
2022-08-18T02:49:24.646Z,2.90
2022-08-18T02:52:06.102Z,2.95
2022-08-18T02:54:53.614Z,3.10
2022-08-18T02:57:35.834Z,3.28
2022-08-18T03:00:26.544Z,2.92
2022-08-18T03:03:14.641Z,3.33
2022-08-18T03:06:03.729Z,3.22
2022-08-18T03:08:44.588Z,3.70
2022-08-18T03:11:36.690Z,2.53
2022-08-18T03:14:18.495Z,3.08
2022-08-18T03:17:13.524Z,3.47
2022-08-18T03:19:55.654Z,3.60
2022-08-18T03:22:45.545Z,3.75
2022-08-18T03:25:27.949Z,3.40
2022-08-18T03:28:17.472Z,3.67
2022-08-18T03:31:05.457Z,3.10
2022-08-18T03:33:53.485Z,3.47
2022-08-18T03:36:43.459Z,3.83
2022-08-18T03:39:34.566Z,3.50
2022-08-18T03:42:22.678Z,4.28
2022-08-18T03:45:13.323Z,3.65
2022-08-18T03:48:00.688Z,3.55
2022-08-18T03:50:48.441Z,4.15
2022-08-18T03:53:36.647Z,3.72
2022-08-18T03:56:23.393Z,3.75
2022-08-18T03:59:15.427Z,3.83
2022-08-18T04:02:05.533Z,3.72
2022-08-18T04:04:53.643Z,3.53
2022-08-18T04:07:34.413Z,3.45
2022-08-18T04:10:22.608Z,4.18
2022-08-18T04:13:05.434Z,3.90
2022-08-18T04:15:53.638Z,3.33
2022-08-18T04:18:35.420Z,3.42
2022-08-18T04:21:24.415Z,3.40
2022-08-18T04:24:12.380Z,3.42
2022-08-18T04:27:00.999Z,2.85
2022-08-18T04:29:43.364Z,2.80
2022-08-18T04:32:30.035Z,2.67
2022-08-18T04:35:19.371Z,2.75
2022-08-18T04:38:07.379Z,2.88
2022-08-18T04:40:55.361Z,3.15
2022-08-18T04:43:44.388Z,2.80
2022-08-18T04:46:27.590Z,4.03
2022-08-18T04:49:17.378Z,2.92
2022-08-18T04:52:32.006Z,2.55
2022-08-18T04:55:26.516Z,2.65
2022-08-18T04:58:08.730Z,2.83
2022-08-18T05:01:05.528Z,2.40
2022-08-18T05:03:50.226Z,2.83
2022-08-18T05:06:39.363Z,3.10
2022-08-18T05:09:23.113Z,3.05
2022-08-18T05:12:13.373Z,2.65
2022-08-18T05:14:57.169Z,2.90
2022-08-18T05:17:46.354Z,3.20
2022-08-18T05:20:33.591Z,2.58
2022-08-18T05:23:23.356Z,2.40
2022-08-18T05:26:05.914Z,2.80
2022-08-18T05:28:58.004Z,2.78
2022-08-18T05:31:55.505Z,2.88
2022-08-18T05:34:44.375Z,2.80
2022-08-18T05:37:35.936Z,2.83
2022-08-18T05:40:23.316Z,2.38
2022-08-18T05:43:06.515Z,2.53
2022-08-18T05:45:58.282Z,2.80
2022-08-18T05:48:47.331Z,2.72
2022-08-18T05:51:41.319Z,3.00
2022-08-18T05:54:44.886Z,2.70
2022-08-18T05:57:36.321Z,2.92
2022-08-18T06:00:25.271Z,3.20
2022-08-18T06:03:20.565Z,2.40
2022-08-18T06:06:05.244Z,2.47
2022-08-18T06:08:58.320Z,2.55
2022-08-18T06:11:41.459Z,2.28
2022-08-18T06:14:29.244Z,2.58
2022-08-18T06:17:23.456Z,2.42
2022-08-18T06:20:21.218Z,1.95
2022-08-18T06:23:18.291Z,2.42
2022-08-18T06:26:17.200Z,2.35
2022-08-18T06:29:25.278Z,2.83
2022-08-18T06:32:26.207Z,2.50
2022-08-18T06:35:27.224Z,1.90
2022-08-18T06:38:45.400Z,1.85
2022-08-18T06:41:41.887Z,1.63
2022-08-18T06:44:42.595Z,1.83
2022-08-18T06:47:36.199Z,1.88
2022-08-18T06:50:21.658Z,1.80
2022-08-18T06:53:25.896Z,2.15
2022-08-18T06:56:26.638Z,1.88
2022-08-18T06:59:31.158Z,1.83
2022-08-18T07:02:29.660Z,1.80
2022-08-18T07:05:26.258Z,1.63
2022-08-18T07:08:23.183Z,2.78
2022-08-18T07:11:27.210Z,1.60
2022-08-18T07:14:30.154Z,1.60
2022-08-18T07:17:22.270Z,1.70
2022-08-18T07:20:35.224Z,1.80
2022-08-18T07:23:38.689Z,1.85
2022-08-18T07:26:23.134Z,1.77
2022-08-18T07:29:15.739Z,2.08
2022-08-18T07:32:06.197Z,2.40
2022-08-18T07:35:00.734Z,2.53
2022-08-18T07:37:49.115Z,2.95
2022-08-18T07:40:38.139Z,2.50
2022-08-18T07:43:35.126Z,2.78
2022-08-18T07:46:29.628Z,2.63
2022-08-18T07:49:13.108Z,2.20
2022-08-18T07:52:19.234Z,2.58
2022-08-18T07:55:24.082Z,2.70
2022-08-18T07:58:20.109Z,2.25
2022-08-18T08:01:14.104Z,2.47
2022-08-18T08:04:10.111Z,2.63
2022-08-18T08:07:24.559Z,2.57
2022-08-18T08:10:33.083Z,2.85
2022-08-18T08:13:44.137Z,2.65
2022-08-18T08:16:44.057Z,2.83
2022-08-18T08:20:02.022Z,2.78
2022-08-18T08:23:15.198Z,2.72
2022-08-18T08:26:10.079Z,3.17
2022-08-18T08:29:10.052Z,2.60
2022-08-18T08:31:57.624Z,2.90
2022-08-18T08:34:51.317Z,2.97
2022-08-18T08:37:38.234Z,2.80
2022-08-18T08:40:36.094Z,3.17
2022-08-18T08:43:34.031Z,2.80
2022-08-18T08:46:21.372Z,3.35
2022-08-18T08:49:16.129Z,2.88
2022-08-18T08:52:08.411Z,2.95
2022-08-18T08:54:56.069Z,2.97
2022-08-18T08:57:55.988Z,3.13
2022-08-18T09:00:46.065Z,2.95
2022-08-18T09:03:46.153Z,2.85
2022-08-18T09:06:37.469Z,2.85
2022-08-18T09:09:55.012Z,2.90
2022-08-18T09:12:57.462Z,2.67
2022-08-18T09:16:14.087Z,2.97
2022-08-18T09:19:29.006Z,3.35
2022-08-18T09:22:22.559Z,2.72
2022-08-18T09:25:11.971Z,2.25
2022-08-18T09:28:17.025Z,2.70
2022-08-18T09:31:24.519Z,2.65
2022-08-18T09:34:32.969Z,2.28
2022-08-18T09:37:26.534Z,2.20
2022-08-18T09:41:02.653Z,1.83
2022-08-18T09:43:44.163Z,2.30
2022-08-18T09:47:04.954Z,1.58
2022-08-18T09:49:55.567Z,1.75
2022-08-18T09:53:02.476Z,1.77
2022-08-18T09:56:04.998Z,1.85
2022-08-18T09:59:10.834Z,1.80
2022-08-18T10:01:52.836Z,1.95
2022-08-18T10:04:55.931Z,1.88
2022-08-18T10:07:47.908Z,1.80
2022-08-18T10:11:00.034Z,1.73
2022-08-18T10:13:54.823Z,1.73
2022-08-18T10:23:13.906Z,1.52
2022-08-18T10:26:04.747Z,1.52
2022-08-18T10:29:04.974Z,1.67
2022-08-18T10:32:35.873Z,1.88
2022-08-18T10:35:57.088Z,1.80
2022-08-18T10:38:59.857Z,1.77
2022-08-18T10:41:54.226Z,1.42
2022-08-18T10:44:50.422Z,1.50
2022-08-18T10:47:36.858Z,1.27
2022-08-18T10:50:22.992Z,1.83
2022-08-18T10:56:43.792Z,1.63
2022-08-18T10:59:47.817Z,2.05
2022-08-18T11:03:21.233Z,1.50
2022-08-18T11:09:19.837Z,1.50
2022-08-18T11:12:06.211Z,1.58
2022-08-18T11:15:24.853Z,1.90
2022-08-18T11:18:24.822Z,1.60
2022-08-18T11:21:31.049Z,1.30
2022-08-18T11:24:25.194Z,1.33
2022-08-18T11:27:15.854Z,1.60
2022-08-18T11:30:08.983Z,1.45
2022-08-18T11:32:54.943Z,1.45
2022-08-18T11:35:54.871Z,2.03
2022-08-18T11:38:37.493Z,1.27
2022-08-18T11:41:33.195Z,1.55
2022-08-18T11:44:39.991Z,1.67
2022-08-18T11:47:30.137Z,1.10
2022-08-18T11:50:19.384Z,1.40
2022-08-18T11:53:25.772Z,1.33
2022-08-18T11:56:19.982Z,1.45
2022-08-18T11:59:54.855Z,1.20
2022-08-18T12:02:47.001Z,1.20
2022-08-18T12:05:45.755Z,1.23
2022-08-18T12:08:57.976Z,1.75
2022-08-18T12:11:58.858Z,1.40
2022-08-18T12:15:10.455Z,1.35
2022-08-18T12:18:02.846Z,1.30
2022-08-18T12:20:44.222Z,1.55
2022-08-18T12:23:38.412Z,1.48
2022-08-18T12:26:38.315Z,1.23
2022-08-18T12:29:36.758Z,1.00
2022-08-18T12:32:49.893Z,1.30
2022-08-18T12:35:36.738Z,0.98
2022-08-18T12:38:19.464Z,1.30
2022-08-18T12:41:08.828Z,1.27
2022-08-18T12:43:59.028Z,1.10
2022-08-18T12:46:59.730Z,0.93
2022-08-18T12:49:50.786Z,1.30
2022-08-18T12:52:46.917Z,1.10
2022-08-18T12:55:27.728Z,1.40
2022-08-18T13:00:59.864Z,1.08
2022-08-18T13:07:01.333Z,1.60
2022-08-18T13:09:53.859Z,1.63
2022-08-18T13:12:42.683Z,1.63
2022-08-18T13:15:37.671Z,1.52
2022-08-18T13:18:27.275Z,1.20
2022-08-18T13:21:12.425Z,1.45
2022-08-18T13:24:02.651Z,1.35
2022-08-18T13:26:54.696Z,1.20
2022-08-18T13:29:36.915Z,1.50
2022-08-18T13:32:25.653Z,1.30
2022-08-18T13:35:17.637Z,1.80
2022-08-18T13:38:14.531Z,1.45
2022-08-18T13:41:15.797Z,1.50
2022-08-18T13:44:04.626Z,1.40
2022-08-18T13:46:47.213Z,1.30
2022-08-18T13:52:34.366Z,1.33
2022-08-18T13:55:22.632Z,1.42
2022-08-18T13:58:20.967Z,1.33
2022-08-18T14:01:39.632Z,1.65
2022-08-18T14:04:12.539Z,2.00
2022-08-18T14:07:07.255Z,1.60
2022-08-18T14:09:51.296Z,2.08
2022-08-18T14:12:41.599Z,2.08
2022-08-18T14:15:42.600Z,3.15
2022-08-18T14:18:31.121Z,2.70
2022-08-18T14:21:29.703Z,2.67
2022-08-18T14:24:36.805Z,2.50
2022-08-18T14:27:18.616Z,2.35
2022-08-18T14:30:08.834Z,2.83
2022-08-18T14:32:52.832Z,2.28
2022-08-18T14:36:06.420Z,2.42
2022-08-18T14:38:42.688Z,2.55
2022-08-18T14:41:30.768Z,2.00
2022-08-18T14:44:14.331Z,2.40
2022-08-18T14:46:57.719Z,2.33
2022-08-18T14:49:49.543Z,2.45
2022-08-18T14:52:31.547Z,2.72
2022-08-18T14:55:20.490Z,3.05
2022-08-18T14:58:09.528Z,2.67
2022-08-18T15:00:58.514Z,2.80
2022-08-18T15:03:48.494Z,1.95
2022-08-18T15:06:32.679Z,2.13
2022-08-18T15:09:23.528Z,2.60
2022-08-18T15:12:07.728Z,3.60
2022-08-18T15:14:55.804Z,2.60
2022-08-18T15:17:52.597Z,3.25
2022-08-18T15:20:35.464Z,2.95
2022-08-18T15:23:43.473Z,3.30
2022-08-18T15:26:28.465Z,3.20
2022-08-18T15:29:11.830Z,2.70
2022-08-18T15:32:06.185Z,3.20
2022-08-18T15:34:52.151Z,3.20
2022-08-18T15:37:39.563Z,2.85
2022-08-18T15:40:35.749Z,2.88
2022-08-18T15:43:25.289Z,2.65
2022-08-18T15:46:07.854Z,3.03
2022-08-18T15:48:56.534Z,3.15
2022-08-18T15:51:48.632Z,3.10
2022-08-18T15:54:31.415Z,3.38
2022-08-18T15:57:39.083Z,3.67
2022-08-18T16:00:26.433Z,4.00
2022-08-18T16:03:16.658Z,3.88
2022-08-18T16:06:00.406Z,3.60
2022-08-18T16:08:42.609Z,4.35
2022-08-18T16:11:31.480Z,4.13
2022-08-18T16:14:20.619Z,4.30
2022-08-18T16:17:09.473Z,4.10
2022-08-18T16:20:05.422Z,4.05
2022-08-18T16:22:54.596Z,3.83
2022-08-18T16:25:35.388Z,4.18
2022-08-18T16:28:34.986Z,4.68
2022-08-18T16:31:21.398Z,3.80
2022-08-18T16:34:10.378Z,3.92
2022-08-18T16:36:58.385Z,3.42
2022-08-18T16:39:46.478Z,4.03
2022-08-18T16:42:32.630Z,4.18
2022-08-18T16:45:21.369Z,4.20
2022-08-18T16:48:06.561Z,4.65
2022-08-18T16:50:56.444Z,4.40
2022-08-18T16:53:40.255Z,3.42
2022-08-18T16:56:31.416Z,4.55
2022-08-18T17:02:36.348Z,3.92
2022-08-18T17:05:26.319Z,4.57
2022-08-18T17:08:14.348Z,4.45
2022-08-18T17:11:02.327Z,4.18
2022-08-18T17:13:45.403Z,4.22
2022-08-18T17:16:36.318Z,4.15
2022-08-18T17:19:25.323Z,4.07
2022-08-18T17:22:08.551Z,3.78
2022-08-18T17:24:56.305Z,3.90
2022-08-18T17:27:48.331Z,3.63
2022-08-18T17:30:37.333Z,3.47
2022-08-18T17:33:31.337Z,3.35
2022-08-18T17:36:27.310Z,3.83
2022-08-18T17:39:16.152Z,3.22
2022-08-18T17:42:22.324Z,2.83
2022-08-18T17:45:06.494Z,2.50
2022-08-18T17:48:03.308Z,2.28
2022-08-18T17:51:06.975Z,2.08
2022-08-18T17:53:55.351Z,1.70
2022-08-18T17:56:46.470Z,1.95
2022-08-18T17:59:46.123Z,1.75
2022-08-18T18:02:35.463Z,1.45
2022-08-18T18:05:26.385Z,1.98
2022-08-18T18:08:09.654Z,1.70
2022-08-18T18:11:05.064Z,1.70
2022-08-18T18:13:48.466Z,1.50
2022-08-18T18:16:41.265Z,1.60
2022-08-18T18:19:22.462Z,1.60
2022-08-18T18:22:15.252Z,1.98
2022-08-18T18:25:07.242Z,1.90
2022-08-18T18:27:55.499Z,2.30
2022-08-18T18:30:40.211Z,2.40
2022-08-18T18:33:29.218Z,1.80
2022-08-18T18:36:18.253Z,2.30
2022-08-18T18:39:17.474Z,2.83
2022-08-18T18:42:01.279Z,2.35
2022-08-18T18:44:59.231Z,2.50
2022-08-18T18:48:38.614Z,3.25
2022-08-18T18:51:33.476Z,8.57
2022-08-18T18:54:25.182Z,3.40
2022-08-18T18:57:12.617Z,5.47
2022-08-18T19:00:19.689Z,8.52
2022-08-18T19:03:19.384Z,5.28
2022-08-18T19:06:13.307Z,3.30
2022-08-18T19:09:09.577Z,3.90
2022-08-18T19:12:04.201Z,3.70
2022-08-18T19:14:59.897Z,3.83
2022-08-18T19:17:53.395Z,5.15
2022-08-18T19:21:25.475Z,5.00
2022-08-18T19:23:56.221Z,3.92
2022-08-18T19:26:49.424Z,5.28
2022-08-18T19:29:34.225Z,5.55
2022-08-18T19:32:19.967Z,5.13
2022-08-18T19:35:10.573Z,5.70
2022-08-18T19:38:11.464Z,5.82
2022-08-18T19:40:57.148Z,6.10
2022-08-18T19:43:47.415Z,3.95
2022-08-18T19:46:43.160Z,4.25
2022-08-18T19:49:37.417Z,4.32
2022-08-18T19:52:45.994Z,4.20
2022-08-18T19:56:13.540Z,4.18
2022-08-18T19:59:21.612Z,3.20
2022-08-18T20:02:42.129Z,3.03
2022-08-18T20:05:33.352Z,3.08
2022-08-18T20:09:01.228Z,2.95
2022-08-18T20:12:06.308Z,3.30
2022-08-18T20:15:08.082Z,3.53
2022-08-18T20:18:33.092Z,4.43
2022-08-18T20:21:42.281Z,4.22
2022-08-18T20:24:46.171Z,4.22
2022-08-18T20:27:41.306Z,4.80
2022-08-18T20:30:35.073Z,4.03
2022-08-18T20:33:30.823Z,3.83
2022-08-18T20:36:43.038Z,3.63
2022-08-18T20:39:49.088Z,3.13
2022-08-18T20:42:57.445Z,3.60
2022-08-18T20:46:02.045Z,3.65
2022-08-18T20:49:06.108Z,4.45
2022-08-18T20:52:04.186Z,4.03
2022-08-18T20:54:57.650Z,4.97
2022-08-18T20:57:47.025Z,4.35
2022-08-18T21:00:31.238Z,4.97
2022-08-18T21:03:27.025Z,4.25
2022-08-18T21:06:09.201Z,3.67
2022-08-18T21:09:00.100Z,3.63
2022-08-18T21:11:57.009Z,4.03
2022-08-18T21:14:38.750Z,4.00
2022-08-18T21:17:29.009Z,4.15
2022-08-18T21:20:16.149Z,4.22
2022-08-18T21:23:03.988Z,3.72
2022-08-18T21:25:59.146Z,3.97
2022-08-18T21:28:42.996Z,4.05
2022-08-18T21:31:43.547Z,3.67
2022-08-18T21:34:45.055Z,3.55
2022-08-18T21:37:35.955Z,3.88
2022-08-18T21:40:18.221Z,4.10
2022-08-18T21:43:05.994Z,4.10
2022-08-18T21:46:05.989Z,4.07
2022-08-18T21:48:57.149Z,4.07
2022-08-18T21:51:49.931Z,3.78
2022-08-18T21:54:41.614Z,4.00
2022-08-18T21:57:29.980Z,3.30
2022-08-18T22:00:20.957Z,4.97
2022-08-18T22:03:29.189Z,4.03
2022-08-18T22:06:24.924Z,4.32
2022-08-18T22:09:31.946Z,5.28
2022-08-18T22:12:44.671Z,4.43
2022-08-18T22:18:36.488Z,3.70
2022-08-18T22:21:38.915Z,3.88
2022-08-18T22:24:29.939Z,4.00
2022-08-18T22:27:16.113Z,4.18
2022-08-18T22:30:10.926Z,7.70
2022-08-18T22:32:52.637Z,13.73
2022-08-18T22:35:41.870Z,4.90
2022-08-18T22:38:23.265Z,5.50
2022-08-18T22:41:12.958Z,5.93
2022-08-18T22:43:55.443Z,5.95
2022-08-18T22:46:43.897Z,5.35
2022-08-18T22:49:26.167Z,4.50
2022-08-18T22:52:19.872Z,4.20
2022-08-18T22:55:06.680Z,4.47
2022-08-18T22:57:57.164Z,5.13
2022-08-18T23:00:45.900Z,4.30
2022-08-18T23:03:41.866Z,5.13
2022-08-18T23:06:31.082Z,4.78
2022-08-18T23:09:13.836Z,4.47
2022-08-18T23:11:57.694Z,5.05
2022-08-18T23:14:50.838Z,4.18
2022-08-18T23:17:54.830Z,4.63
2022-08-18T23:20:43.822Z,4.68
2022-08-18T23:23:27.093Z,4.03
2022-08-18T23:26:15.870Z,4.97
2022-08-18T23:29:05.380Z,4.63
2022-08-18T23:31:55.821Z,4.28
2022-08-18T23:34:30.872Z,4.18
2022-08-18T23:37:02.157Z,4.50
2022-08-18T23:39:32.699Z,4.68
2022-08-18T23:42:02.066Z,5.22
2022-08-18T23:44:31.347Z,3.85
2022-08-18T23:47:01.764Z,3.53
2022-08-18T23:49:31.508Z,3.25
2022-08-18T23:52:01.104Z,4.63
2022-08-18T23:54:31.837Z,4.05
2022-08-18T23:57:00.245Z,3.75
2022-08-18T23:59:30.226Z,4.07
